HBZHY VNLK-VNLK
Flight info
| Callsign | HBZHY |
|---|---|
| Flight time | 0h 54m |
| Altitude | 30000 |
| Route | MOUNT EVEREST |
| Aircraft | AS50/L-DGOV/C |
Departure
| Time | 2026-04-11 16:18 |
|---|---|
| Airport | Tenzing-Hillary Airport (VNLK) |
Arrival
| Time | 2026-04-11 17:13 |
|---|---|
| Airport | Tenzing-Hillary Airport (VNLK) |
| Time | Latitude | Longitude | Altitude | Speed | Heading |
|---|---|---|---|---|---|
| 2026-04-11 16:08 | 27.68776 | 86.73067 | 9430 ft | 0 kts | 59° |
| 2026-04-11 16:17 | 27.68776 | 86.73068 | 9426 ft | 0 kts | 56° |
| 2026-04-11 16:18 | 27.68814 | 86.73038 | 9612 ft | 33 kts | 326° |
| 2026-04-11 16:18 | 27.69188 | 86.72733 | 9741 ft | 88 kts | 314° |
| 2026-04-11 16:18 | 27.69634 | 86.72136 | 9861 ft | 106 kts | 304° |
| 2026-04-11 16:18 | 27.70024 | 86.71400 | 10080 ft | 112 kts | 303° |
| 2026-04-11 16:19 | 27.70641 | 86.70875 | 10238 ft | 115 kts | 339° |
| 2026-04-11 16:19 | 27.71456 | 86.70858 | 10308 ft | 120 kts | 9° |
| 2026-04-11 16:19 | 27.72212 | 86.71099 | 10534 ft | 112 kts | 14° |
| 2026-04-11 16:19 | 27.72945 | 86.71298 | 10914 ft | 105 kts | 15° |
| 2026-04-11 16:20 | 27.73587 | 86.71702 | 11173 ft | 105 kts | 40° |
| 2026-04-11 16:20 | 27.74155 | 86.72164 | 11476 ft | 100 kts | 29° |
| 2026-04-11 16:20 | 27.74798 | 86.72492 | 11790 ft | 99 kts | 20° |
| 2026-04-11 16:20 | 27.75379 | 86.72884 | 12097 ft | 101 kts | 25° |
| 2026-04-11 16:21 | 27.76134 | 86.73097 | 12182 ft | 117 kts | 8° |
| 2026-04-11 16:21 | 27.76930 | 86.73233 | 12444 ft | 112 kts | 13° |
| 2026-04-11 16:21 | 27.77695 | 86.73341 | 12673 ft | 112 kts | 358° |
| 2026-04-11 16:21 | 27.78480 | 86.73393 | 12916 ft | 113 kts | 9° |
| 2026-04-11 16:22 | 27.79073 | 86.73733 | 13491 ft | 75 kts | 40° |
| 2026-04-11 16:22 | 27.79500 | 86.73925 | 13952 ft | 66 kts | 6° |
| 2026-04-11 16:22 | 27.79912 | 86.74199 | 14217 ft | 84 kts | 47° |
| 2026-04-11 16:22 | 27.80200 | 86.74747 | 14512 ft | 77 kts | 68° |
| 2026-04-11 16:23 | 27.80189 | 86.75260 | 14882 ft | 48 kts | 102° |
| 2026-04-11 16:23 | 27.80337 | 86.75676 | 15134 ft | 68 kts | 63° |
| 2026-04-11 16:23 | 27.80742 | 86.76029 | 15368 ft | 82 kts | 21° |
| 2026-04-11 16:23 | 27.81276 | 86.76325 | 15659 ft | 77 kts | 40° |
| 2026-04-11 16:24 | 27.81256 | 86.76694 | 16123 ft | 63 kts | 122° |
| 2026-04-11 16:24 | 27.81003 | 86.77118 | 16360 ft | 59 kts | 146° |
| 2026-04-11 16:24 | 27.80695 | 86.77414 | 16576 ft | 61 kts | 143° |
| 2026-04-11 16:24 | 27.80357 | 86.77701 | 16793 ft | 58 kts | 143° |
| 2026-04-11 16:25 | 27.80136 | 86.78152 | 16944 ft | 75 kts | 112° |
| 2026-04-11 16:25 | 27.80110 | 86.78806 | 17021 ft | 95 kts | 59° |
| 2026-04-11 16:25 | 27.80724 | 86.79239 | 16901 ft | 121 kts | 26° |
| 2026-04-11 16:25 | 27.81491 | 86.79803 | 16797 ft | 141 kts | 31° |
| 2026-04-11 16:26 | 27.82308 | 86.80444 | 16727 ft | 139 kts | 37° |
| 2026-04-11 16:26 | 27.83060 | 86.81152 | 17035 ft | 147 kts | 36° |
| 2026-04-11 16:26 | 27.83887 | 86.81919 | 17164 ft | 156 kts | 34° |
| 2026-04-11 16:26 | 27.84760 | 86.82586 | 17474 ft | 153 kts | 28° |
| 2026-04-11 16:27 | 27.85675 | 86.83253 | 17715 ft | 152 kts | 28° |
| 2026-04-11 16:27 | 27.86552 | 86.83894 | 18019 ft | 151 kts | 30° |
| 2026-04-11 16:27 | 27.87405 | 86.84609 | 18129 ft | 156 kts | 41° |
| 2026-04-11 16:27 | 27.88184 | 86.85412 | 18278 ft | 154 kts | 36° |
| 2026-04-11 16:28 | 27.89009 | 86.86197 | 18422 ft | 148 kts | 33° |
| 2026-04-11 16:28 | 27.89891 | 86.86558 | 18806 ft | 128 kts | 359° |
| 2026-04-11 16:28 | 27.90726 | 86.86479 | 19179 ft | 118 kts | 344° |
| 2026-04-11 16:28 | 27.91532 | 86.86324 | 19434 ft | 118 kts | 334° |
| 2026-04-11 16:29 | 27.92335 | 86.86100 | 19628 ft | 121 kts | 341° |
| 2026-04-11 16:29 | 27.93099 | 86.85879 | 19917 ft | 113 kts | 333° |
| 2026-04-11 16:29 | 27.93848 | 86.85672 | 20264 ft | 114 kts | 341° |
| 2026-04-11 16:29 | 27.94640 | 86.85618 | 20467 ft | 114 kts | 346° |
| 2026-04-11 16:30 | 27.95419 | 86.85605 | 20792 ft | 107 kts | 354° |
| 2026-04-11 16:30 | 27.96044 | 86.86018 | 21250 ft | 106 kts | 30° |
| 2026-04-11 16:30 | 27.96197 | 86.86818 | 21707 ft | 111 kts | 95° |
| 2026-04-11 16:30 | 27.95954 | 86.87594 | 22195 ft | 97 kts | 107° |
| 2026-04-11 16:31 | 27.95674 | 86.88323 | 22704 ft | 105 kts | 105° |
| 2026-04-11 16:31 | 27.95468 | 86.89213 | 23023 ft | 124 kts | 96° |
| 2026-04-11 16:31 | 27.95416 | 86.90146 | 23428 ft | 117 kts | 72° |
| 2026-04-11 16:31 | 27.95430 | 86.91105 | 23468 ft | 124 kts | 83° |
| 2026-04-11 16:32 | 27.95378 | 86.92082 | 23710 ft | 125 kts | 76° |
| 2026-04-11 16:32 | 27.95359 | 86.93090 | 23934 ft | 127 kts | 84° |
| 2026-04-11 16:32 | 27.95224 | 86.94083 | 24188 ft | 133 kts | 100° |
| 2026-04-11 16:32 | 27.94950 | 86.95099 | 24530 ft | 133 kts | 101° |
| 2026-04-11 16:33 | 27.94714 | 86.96107 | 24801 ft | 136 kts | 95° |
| 2026-04-11 16:33 | 27.94448 | 86.97158 | 24954 ft | 142 kts | 110° |
| 2026-04-11 16:33 | 27.94054 | 86.98193 | 25223 ft | 148 kts | 118° |
| 2026-04-11 16:33 | 27.93809 | 86.99260 | 25397 ft | 136 kts | 74° |
| 2026-04-11 16:34 | 27.94150 | 86.99953 | 25536 ft | 69 kts | 342° |
| 2026-04-11 16:34 | 27.94373 | 86.99968 | 25624 ft | 22 kts | 279° |
| 2026-04-11 16:34 | 27.94338 | 86.99696 | 25549 ft | 40 kts | 278° |
| 2026-04-11 16:34 | 27.94496 | 86.99416 | 25594 ft | 47 kts | 301° |
| 2026-04-11 16:35 | 27.94715 | 86.99251 | 25762 ft | 28 kts | 295° |
| 2026-04-11 16:35 | 27.94794 | 86.99091 | 25759 ft | 24 kts | 279° |
| 2026-04-11 16:35 | 27.94841 | 86.98895 | 25737 ft | 26 kts | 279° |
| 2026-04-11 16:35 | 27.94920 | 86.98672 | 25722 ft | 33 kts | 287° |
| 2026-04-11 16:36 | 27.95046 | 86.98435 | 25752 ft | 40 kts | 289° |
| 2026-04-11 16:36 | 27.95185 | 86.98011 | 25584 ft | 75 kts | 286° |
| 2026-04-11 16:36 | 27.95338 | 86.97321 | 25352 ft | 103 kts | 282° |
| 2026-04-11 16:36 | 27.95470 | 86.96522 | 25291 ft | 95 kts | 281° |
| 2026-04-11 16:37 | 27.95535 | 86.95756 | 25205 ft | 95 kts | 276° |
| 2026-04-11 16:37 | 27.95420 | 86.94984 | 24850 ft | 110 kts | 255° |
| 2026-04-11 16:37 | 27.95326 | 86.94090 | 24752 ft | 112 kts | 274° |
| 2026-04-11 16:37 | 27.95511 | 86.93304 | 24933 ft | 99 kts | 284° |
| 2026-04-11 16:38 | 27.95655 | 86.92576 | 25056 ft | 89 kts | 278° |
| 2026-04-11 16:38 | 27.95830 | 86.91967 | 25263 ft | 76 kts | 282° |
| 2026-04-11 16:38 | 27.95879 | 86.91366 | 25431 ft | 78 kts | 285° |
| 2026-04-11 16:38 | 27.95988 | 86.90783 | 25550 ft | 74 kts | 279° |
| 2026-04-11 16:39 | 27.96154 | 86.90250 | 25727 ft | 73 kts | 282° |
| 2026-04-11 16:39 | 27.96297 | 86.89708 | 25838 ft | 70 kts | 289° |
| 2026-04-11 16:39 | 27.96508 | 86.89227 | 25831 ft | 66 kts | 294° |
| 2026-04-11 16:39 | 27.96686 | 86.88875 | 25979 ft | 39 kts | 291° |
| 2026-04-11 16:40 | 27.96958 | 86.88925 | 25957 ft | 77 kts | 355° |
| 2026-04-11 16:40 | 27.97111 | 86.89758 | 25857 ft | 141 kts | 84° |
| 2026-04-11 16:40 | 27.96979 | 86.90837 | 26063 ft | 134 kts | 80° |
| 2026-04-11 16:40 | 27.97019 | 86.91904 | 26449 ft | 136 kts | 65° |
| 2026-04-11 16:41 | 27.97219 | 86.92804 | 27205 ft | 95 kts | 10° |
| 2026-04-11 16:41 | 27.97589 | 86.93086 | 27406 ft | 47 kts | 311° |
| 2026-04-11 16:41 | 27.97808 | 86.92909 | 27054 ft | 45 kts | 276° |
| 2026-04-11 16:41 | 27.97534 | 86.92507 | 26974 ft | 89 kts | 248° |
| 2026-04-11 16:42 | 27.96726 | 86.92430 | 27429 ft | 152 kts | 178° |
| 2026-04-11 16:42 | 27.96053 | 86.93465 | 28281 ft | 179 kts | 107° |
| 2026-04-11 16:42 | 27.95660 | 86.94886 | 27926 ft | 200 kts | 119° |
| 2026-04-11 16:43 | 27.94705 | 86.98132 | 26668 ft | 227 kts | 110° |
| 2026-04-11 16:43 | 27.94007 | 86.99619 | 26418 ft | 203 kts | 143° |
| 2026-04-11 16:43 | 27.92965 | 87.00149 | 25840 ft | 131 kts | 221° |
| 2026-04-11 16:43 | 27.92303 | 86.99783 | 25521 ft | 100 kts | 234° |
| 2026-04-11 16:44 | 27.91627 | 86.99362 | 24704 ft | 120 kts | 232° |
| 2026-04-11 16:44 | 27.91518 | 86.99277 | 24583 ft | 123 kts | 233° |
| 2026-04-11 16:45 | 27.91208 | 86.98993 | 24408 ft | 114 kts | 239° |
| 2026-04-11 16:45 | 27.90644 | 86.98452 | 24117 ft | 102 kts | 241° |
| 2026-04-11 16:46 | 27.90201 | 86.97905 | 23921 ft | 88 kts | 249° |
| 2026-04-11 16:46 | 27.89865 | 86.97383 | 23792 ft | 78 kts | 253° |
| 2026-04-11 16:46 | 27.89605 | 86.96868 | 23690 ft | 77 kts | 256° |
| 2026-04-11 16:46 | 27.89347 | 86.96367 | 23593 ft | 69 kts | 268° |
| 2026-04-11 16:47 | 27.89227 | 86.95872 | 23485 ft | 62 kts | 277° |
| 2026-04-11 16:47 | 27.89200 | 86.95553 | 23386 ft | 60 kts | 278° |
| 2026-04-11 16:47 | 27.89152 | 86.94936 | 23146 ft | 65 kts | 268° |
| 2026-04-11 16:47 | 27.89065 | 86.94419 | 22943 ft | 66 kts | 273° |
| 2026-04-11 16:48 | 27.89287 | 86.93947 | 22669 ft | 73 kts | 308° |
| 2026-04-11 16:48 | 27.89502 | 86.93663 | 22562 ft | 73 kts | 300° |
| 2026-04-11 16:48 | 27.89867 | 86.93176 | 22150 ft | 96 kts | 323° |
| 2026-04-11 16:48 | 27.90422 | 86.92832 | 21989 ft | 85 kts | 314° |
| 2026-04-11 16:49 | 27.90789 | 86.92354 | 21831 ft | 81 kts | 301° |
| 2026-04-11 16:49 | 27.91090 | 86.91821 | 21625 ft | 80 kts | 296° |
| 2026-04-11 16:49 | 27.91364 | 86.91244 | 21476 ft | 87 kts | 300° |
| 2026-04-11 16:49 | 27.91701 | 86.90650 | 21229 ft | 93 kts | 294° |
| 2026-04-11 16:50 | 27.91675 | 86.90003 | 21104 ft | 91 kts | 239° |
| 2026-04-11 16:50 | 27.90962 | 86.89838 | 20780 ft | 124 kts | 175° |
| 2026-04-11 16:50 | 27.90143 | 86.90362 | 20435 ft | 146 kts | 141° |
| 2026-04-11 16:50 | 27.89389 | 86.91214 | 20081 ft | 156 kts | 139° |
| 2026-04-11 16:51 | 27.88660 | 86.92102 | 19822 ft | 156 kts | 124° |
| 2026-04-11 16:51 | 27.88196 | 86.93224 | 19517 ft | 159 kts | 105° |
| 2026-04-11 16:51 | 27.88080 | 86.94469 | 19308 ft | 158 kts | 87° |
| 2026-04-11 16:51 | 27.88261 | 86.95665 | 19166 ft | 156 kts | 63° |
| 2026-04-11 16:52 | 27.89066 | 86.96322 | 18712 ft | 139 kts | 351° |
| 2026-04-11 16:52 | 27.89610 | 86.95569 | 18118 ft | 146 kts | 280° |
| 2026-04-11 16:52 | 27.89734 | 86.94372 | 17584 ft | 164 kts | 275° |
| 2026-04-11 16:52 | 27.89801 | 86.93079 | 17139 ft | 159 kts | 274° |
| 2026-04-11 16:53 | 27.89922 | 86.91860 | 16818 ft | 151 kts | 275° |
| 2026-04-11 16:53 | 27.90016 | 86.90720 | 16610 ft | 140 kts | 270° |
| 2026-04-11 16:53 | 27.90041 | 86.89623 | 16399 ft | 138 kts | 266° |
| 2026-04-11 16:53 | 27.89839 | 86.88568 | 16149 ft | 138 kts | 261° |
| 2026-04-11 16:54 | 27.89854 | 86.87511 | 15956 ft | 136 kts | 275° |
| 2026-04-11 16:54 | 27.89889 | 86.86448 | 15727 ft | 138 kts | 273° |
| 2026-04-11 16:54 | 27.89788 | 86.85329 | 15320 ft | 150 kts | 260° |
| 2026-04-11 16:54 | 27.89593 | 86.84167 | 15021 ft | 150 kts | 258° |
| 2026-04-11 16:55 | 27.89161 | 86.83124 | 14737 ft | 149 kts | 225° |
| 2026-04-11 16:55 | 27.88347 | 86.82417 | 14486 ft | 148 kts | 229° |
| 2026-04-11 16:55 | 27.87612 | 86.81621 | 14188 ft | 150 kts | 209° |
| 2026-04-11 16:55 | 27.86787 | 86.80956 | 14030 ft | 141 kts | 227° |
| 2026-04-11 16:56 | 27.85496 | 86.79469 | 13926 ft | 123 kts | 232° |
| 2026-04-11 16:56 | 27.84969 | 86.78704 | 13849 ft | 118 kts | 230° |
| 2026-04-11 16:56 | 27.84821 | 86.78509 | 13844 ft | 116 kts | 232° |
| 2026-04-11 17:01 | 27.84620 | 86.77795 | 13747 ft | 116 kts | 259° |
| 2026-04-11 17:02 | 27.84389 | 86.76841 | 13539 ft | 128 kts | 245° |
| 2026-04-11 17:02 | 27.83992 | 86.75908 | 13277 ft | 139 kts | 261° |
| 2026-04-11 17:02 | 27.83452 | 86.75086 | 13066 ft | 134 kts | 221° |
| 2026-04-11 17:02 | 27.82822 | 86.74365 | 12979 ft | 126 kts | 234° |
| 2026-04-11 17:03 | 27.82481 | 86.73578 | 13143 ft | 103 kts | 256° |
| 2026-04-11 17:03 | 27.82246 | 86.72853 | 13187 ft | 98 kts | 251° |
| 2026-04-11 17:03 | 27.81895 | 86.72196 | 13092 ft | 103 kts | 230° |
| 2026-04-11 17:03 | 27.81389 | 86.71529 | 12770 ft | 123 kts | 226° |
| 2026-04-11 17:04 | 27.80895 | 86.70679 | 12405 ft | 136 kts | 263° |
| 2026-04-11 17:04 | 27.81180 | 86.69772 | 12462 ft | 115 kts | 301° |
| 2026-04-11 17:04 | 27.81684 | 86.69067 | 12418 ft | 115 kts | 313° |
| 2026-04-11 17:04 | 27.82298 | 86.68475 | 12272 ft | 107 kts | 323° |
| 2026-04-11 17:05 | 27.82615 | 86.67826 | 12362 ft | 104 kts | 282° |
| 2026-04-11 17:05 | 27.82806 | 86.67030 | 12379 ft | 102 kts | 293° |
| 2026-04-11 17:05 | 27.82994 | 86.66250 | 12389 ft | 105 kts | 269° |
| 2026-04-11 17:05 | 27.82585 | 86.65731 | 12389 ft | 94 kts | 154° |
| 2026-04-11 17:06 | 27.82305 | 86.66546 | 11972 ft | 129 kts | 109° |
| 2026-04-11 17:06 | 27.81863 | 86.67438 | 11752 ft | 129 kts | 128° |
| 2026-04-11 17:06 | 27.81350 | 86.68234 | 11556 ft | 122 kts | 141° |
| 2026-04-11 17:06 | 27.80762 | 86.68863 | 11524 ft | 113 kts | 135° |
| 2026-04-11 17:07 | 27.80285 | 86.69526 | 11493 ft | 107 kts | 137° |
| 2026-04-11 17:07 | 27.79718 | 86.70052 | 11369 ft | 104 kts | 144° |
| 2026-04-11 17:07 | 27.79243 | 86.70611 | 11331 ft | 99 kts | 122° |
| 2026-04-11 17:07 | 27.78875 | 86.71334 | 11027 ft | 113 kts | 152° |
| 2026-04-11 17:08 | 27.78157 | 86.71499 | 11032 ft | 92 kts | 171° |
| 2026-04-11 17:08 | 27.77494 | 86.71655 | 10894 ft | 102 kts | 184° |
| 2026-04-11 17:08 | 27.76787 | 86.71610 | 10779 ft | 107 kts | 186° |
| 2026-04-11 17:08 | 27.76080 | 86.71414 | 10739 ft | 106 kts | 205° |
| 2026-04-11 17:09 | 27.75385 | 86.71057 | 10617 ft | 111 kts | 202° |
| 2026-04-11 17:09 | 27.74616 | 86.70903 | 10551 ft | 114 kts | 184° |
| 2026-04-11 17:09 | 27.73833 | 86.70926 | 10455 ft | 110 kts | 182° |
| 2026-04-11 17:09 | 27.73076 | 86.70814 | 10486 ft | 106 kts | 191° |
| 2026-04-11 17:10 | 27.72346 | 86.70685 | 10396 ft | 109 kts | 191° |
| 2026-04-11 17:13 | 27.68277 | 86.72176 | 9162 ft | 73 kts | 56° |
| 2026-04-11 17:13 | 27.68470 | 86.72542 | 9246 ft | 41 kts | 56° |
| 2026-04-11 17:13 | 27.68590 | 86.72769 | 9262 ft | 28 kts | 64° |
| 2026-04-11 17:14 | 27.68673 | 86.72937 | 9350 ft | 26 kts | 64° |
| 2026-04-11 17:14 | 27.68731 | 86.73037 | 9405 ft | 8 kts | 51° |
| 2026-04-11 17:14 | 27.68776 | 86.73062 | 9430 ft | 5 kts | 65° |
| 2026-04-11 17:14 | 27.68778 | 86.73070 | 9422 ft | 0 kts | 67° |